createdAt,value
2018-09-11T00:00:38.528Z,48.52
2018-09-11T00:01:47.945Z,48.52
2018-09-11T00:02:57.360Z,48.52
2018-09-11T00:04:06.256Z,48.61
2018-09-11T00:05:15.444Z,48.61
2018-09-11T00:06:25.387Z,48.52
2018-09-11T00:07:34.821Z,48.52
2018-09-11T00:08:44.234Z,48.52
2018-09-11T00:09:53.437Z,48.52
2018-09-11T00:11:02.655Z,48.52
2018-09-11T00:12:11.823Z,48.52
2018-09-11T00:13:21.265Z,48.61
2018-09-11T00:14:30.431Z,48.61
2018-09-11T00:15:39.856Z,48.52
2018-09-11T00:16:48.758Z,48.61
2018-09-11T00:17:58.183Z,48.42
2018-09-11T00:19:07.627Z,48.61
2018-09-11T00:20:16.547Z,48.61
2018-09-11T00:21:25.716Z,48.42
2018-09-11T00:22:35.411Z,48.52
2018-09-11T00:23:44.826Z,48.52
2018-09-11T00:24:53.495Z,48.52
2018-09-11T00:26:02.712Z,48.52
2018-09-11T00:27:12.407Z,48.52
2018-09-11T00:28:21.857Z,48.52
2018-09-11T00:29:30.774Z,48.61
2018-09-11T00:30:40.457Z,48.61
2018-09-11T00:31:50.391Z,48.52
2018-09-11T00:33:00.344Z,48.61
2018-09-11T00:34:09.058Z,48.52
2018-09-11T00:35:18.483Z,48.52
2018-09-11T00:36:27.903Z,48.61
2018-09-11T00:37:37.586Z,48.61
2018-09-11T00:38:46.734Z,48.61
2018-09-11T00:39:56.677Z,48.52
2018-09-11T00:41:06.357Z,48.71
2018-09-11T00:42:15.589Z,48.61
2018-09-11T00:43:24.909Z,48.52
2018-09-11T00:44:34.591Z,48.81
2018-09-11T00:45:44.023Z,48.61
2018-09-11T00:46:53.450Z,48.52
2018-09-11T00:48:03.129Z,48.61
2018-09-11T00:49:12.538Z,48.71
2018-09-11T00:50:21.961Z,48.71
2018-09-11T00:51:31.397Z,48.52
2018-09-11T00:52:40.810Z,48.71
2018-09-11T00:53:49.982Z,48.52
2018-09-11T00:54:59.661Z,48.52
2018-09-11T00:56:09.096Z,48.81
2018-09-11T00:57:18.523Z,48.52
2018-09-11T00:58:27.447Z,48.61
2018-09-11T00:59:37.130Z,48.81
2018-09-11T01:00:46.297Z,48.71
2018-09-11T01:01:55.465Z,48.9
2018-09-11T01:03:04.620Z,48.61
2018-09-11T01:04:14.295Z,48.71
2018-09-11T01:05:23.213Z,48.81
2018-09-11T01:06:32.644Z,48.81
2018-09-11T01:07:42.071Z,48.71
2018-09-11T01:08:51.265Z,48.61
2018-09-11T01:10:00.739Z,48.71
2018-09-11T01:11:10.372Z,48.52
2018-09-11T01:12:19.289Z,48.71
2018-09-11T01:13:28.473Z,48.71
2018-09-11T01:14:37.667Z,48.52
2018-09-11T01:15:46.840Z,48.61
2018-09-11T01:16:56.506Z,48.9
2018-09-11T01:18:05.686Z,48.52
2018-09-11T01:19:14.850Z,48.71
2018-09-11T01:20:24.015Z,48.52
2018-09-11T01:21:33.397Z,48.52
2018-09-11T01:22:42.810Z,48.9
2018-09-11T01:23:52.239Z,48.81
2018-09-11T01:25:01.410Z,49
2018-09-11T01:26:10.328Z,49
2018-09-11T01:27:19.521Z,48.69
2018-09-11T01:28:29.000Z,48.9
2018-09-11T01:29:38.690Z,49
2018-09-11T01:30:48.107Z,48.9
2018-09-11T01:31:57.806Z,49.1
2018-09-11T01:33:07.484Z,49
2018-09-11T01:34:16.925Z,48.9
2018-09-11T01:35:26.082Z,48.97
2018-09-11T01:36:34.989Z,48.9
2018-09-11T01:37:44.157Z,48.97
2018-09-11T01:38:53.848Z,49
2018-09-11T01:40:03.013Z,48.9
2018-09-11T01:41:12.202Z,48.97
2018-09-11T01:42:21.624Z,48.69
2018-09-11T01:43:30.526Z,48.69
2018-09-11T01:44:39.960Z,48.69
2018-09-11T01:45:49.891Z,48.69
2018-09-11T01:46:59.074Z,48.59
2018-09-11T01:48:08.770Z,48.79
2018-09-11T01:49:18.194Z,48.61
2018-09-11T01:50:27.633Z,48.59
2018-09-11T01:51:37.056Z,48.79
2018-09-11T01:52:46.480Z,48.59
2018-09-11T01:53:55.657Z,48.79
2018-09-11T01:55:05.082Z,48.71
2018-09-11T01:56:14.260Z,48.69
2018-09-11T01:57:23.956Z,48.69
2018-09-11T01:58:33.149Z,48.79
2018-09-11T01:59:42.575Z,48.49
2018-09-11T02:00:52.009Z,48.59
2018-09-11T02:02:01.959Z,48.59
2018-09-11T02:03:11.133Z,48.69
2018-09-11T02:04:20.312Z,48.79
2018-09-11T02:05:29.474Z,48.88
2018-09-11T02:06:38.932Z,48.49
2018-09-11T02:07:48.629Z,48.79
2018-09-11T02:08:57.784Z,48.88
2018-09-11T02:10:07.206Z,48.88
2018-09-11T02:11:16.371Z,48.79
2018-09-11T02:12:25.023Z,48.97
2018-09-11T02:13:34.774Z,48.88
2018-09-11T02:14:43.941Z,48.88
2018-09-11T02:15:52.913Z,48.88
2018-09-11T02:17:02.074Z,48.97
2018-09-11T02:18:11.761Z,48.88
2018-09-11T02:19:21.174Z,48.88
2018-09-11T02:20:30.596Z,48.88
2018-09-11T02:21:39.512Z,49.07
2018-09-11T02:22:48.939Z,48.97
2018-09-11T02:23:58.367Z,48.97
2018-09-11T02:25:07.790Z,48.88
2018-09-11T02:26:16.717Z,48.97
2018-09-11T02:27:25.885Z,48.59
2018-09-11T02:28:34.807Z,48.97
2018-09-11T02:29:44.277Z,48.79
2018-09-11T02:30:53.458Z,48.88
2018-09-11T02:32:02.702Z,48.79
2018-09-11T02:33:12.670Z,48.79
2018-09-11T02:34:22.142Z,48.79
2018-09-11T02:35:31.075Z,48.79
2018-09-11T02:36:40.649Z,48.79
2018-09-11T02:37:49.888Z,48.59
2018-09-11T02:38:59.346Z,48.88
2018-09-11T02:40:08.789Z,48.79
2018-09-11T02:41:18.459Z,48.79
2018-09-11T02:42:27.889Z,48.88
2018-09-11T02:43:37.858Z,48.88
2018-09-11T02:44:47.286Z,48.97
2018-09-11T02:45:57.315Z,48.88
2018-09-11T02:47:06.805Z,48.97
2018-09-11T02:48:16.243Z,48.88
2018-09-11T02:49:25.930Z,48.79
2018-09-11T02:50:35.363Z,49.07
2018-09-11T02:51:44.841Z,48.88
2018-09-11T02:52:54.787Z,48.88
2018-09-11T02:54:03.964Z,48.88
2018-09-11T02:55:13.922Z,48.97
2018-09-11T02:56:23.091Z,48.79
2018-09-11T02:57:31.765Z,48.88
2018-09-11T02:58:41.457Z,48.97
2018-09-11T02:59:51.413Z,48.95
2018-09-11T03:01:00.837Z,48.57
2018-09-11T03:02:10.395Z,49.15
2018-09-11T03:03:20.077Z,49.17
2018-09-11T03:04:29.504Z,48.95
2018-09-11T03:05:38.676Z,49.07
2018-09-11T03:06:47.933Z,48.95
2018-09-11T03:07:57.122Z,49.05
2018-09-11T03:09:06.575Z,49.05
2018-09-11T03:10:16.265Z,48.76
2018-09-11T03:11:25.734Z,48.79
2018-09-11T03:12:34.939Z,48.86
2018-09-11T03:13:44.608Z,48.95
2018-09-11T03:14:54.293Z,48.79
2018-09-11T03:16:03.483Z,49.05
2018-09-11T03:17:13.439Z,48.95
2018-09-11T03:18:22.938Z,49.05
2018-09-11T03:19:32.638Z,49.05
2018-09-11T03:20:42.375Z,49.15
2018-09-11T03:21:51.549Z,49.34
2018-09-11T03:23:00.719Z,48.95
2018-09-11T03:24:09.896Z,48.95
2018-09-11T03:25:19.386Z,48.66
2018-09-11T03:26:28.893Z,48.66
2018-09-11T03:27:38.347Z,48.95
2018-09-11T03:28:47.775Z,49.05
2018-09-11T03:29:56.962Z,48.66
2018-09-11T03:31:06.665Z,48.66
2018-09-11T03:32:16.097Z,48.95
2018-09-11T03:33:25.781Z,49.05
2018-09-11T03:34:35.052Z,48.95
2018-09-11T03:35:44.751Z,48.86
2018-09-11T03:36:53.912Z,49.05
2018-09-11T03:38:03.094Z,48.95
2018-09-11T03:39:12.536Z,48.76
2018-09-11T03:40:22.006Z,49.15
2018-09-11T03:41:31.442Z,49.05
2018-09-11T03:42:41.143Z,48.95
2018-09-11T03:43:50.304Z,48.86
2018-09-11T03:44:59.799Z,49.15
2018-09-11T03:46:08.992Z,49.05
2018-09-11T03:47:18.153Z,48.86
2018-09-11T03:48:27.597Z,49.15
2018-09-11T03:49:36.246Z,48.86
2018-09-11T03:50:45.993Z,48.86
2018-09-11T03:51:55.672Z,48.57
2018-09-11T03:53:05.100Z,48.86
2018-09-11T03:54:14.297Z,48.95
2018-09-11T03:55:24.237Z,48.86
2018-09-11T03:56:33.422Z,48.76
2018-09-11T03:57:43.238Z,48.86
2018-09-11T03:58:53.181Z,48.86
2018-09-11T04:00:02.899Z,48.86
2018-09-11T04:01:12.057Z,48.95
2018-09-11T04:02:21.735Z,48.86
2018-09-11T04:03:30.680Z,48.86
2018-09-11T04:04:39.857Z,48.95
2018-09-11T04:05:49.298Z,48.86
2018-09-11T04:06:58.755Z,49.15
2018-09-11T04:08:08.474Z,48.86
2018-09-11T04:09:17.646Z,48.86
2018-09-11T04:10:27.337Z,48.95
2018-09-11T04:11:36.255Z,48.86
2018-09-11T04:12:45.725Z,48.76
2018-09-11T04:13:55.418Z,48.86
2018-09-11T04:15:04.841Z,49.05
2018-09-11T04:16:14.273Z,48.95
2018-09-11T04:17:23.701Z,48.95
2018-09-11T04:18:32.364Z,48.95
2018-09-11T04:19:42.315Z,48.95
2018-09-11T04:20:51.252Z,49.05
2018-09-11T04:22:00.966Z,48.86
2018-09-11T04:23:10.396Z,48.86
2018-09-11T04:24:19.821Z,48.95
2018-09-11T04:25:29.309Z,48.86
2018-09-11T04:26:39.716Z,48.95
2018-09-11T04:27:48.881Z,48.76
2018-09-11T04:28:57.818Z,48.86
2018-09-11T04:30:07.503Z,48.76
2018-09-11T04:31:16.953Z,48.95
2018-09-11T04:32:26.636Z,48.66
2018-09-11T04:33:36.338Z,48.76
2018-09-11T04:34:45.520Z,48.57
2018-09-11T04:35:54.934Z,48.47
2018-09-11T04:37:04.361Z,48.76
2018-09-11T04:38:13.860Z,48.57
2018-09-11T04:39:23.291Z,49.34
2018-09-11T04:40:33.012Z,48.66
2018-09-11T04:41:42.696Z,48.76
2018-09-11T04:42:52.455Z,48.76
2018-09-11T04:44:02.021Z,48.76
2018-09-11T04:45:11.481Z,48.66
2018-09-11T04:46:21.422Z,48.76
2018-09-11T04:47:31.175Z,48.66
2018-09-11T04:48:41.126Z,48.66
2018-09-11T04:49:51.091Z,48.86
2018-09-11T04:51:00.589Z,48.76
2018-09-11T04:52:10.244Z,48.86
2018-09-11T04:53:19.454Z,48.95
2018-09-11T04:54:28.612Z,48.57
2018-09-11T04:55:39.007Z,48.86
2018-09-11T04:56:48.176Z,48.76
2018-09-11T04:57:57.100Z,48.95
2018-09-11T04:59:06.785Z,48.86
2018-09-11T05:00:15.981Z,48.76
2018-09-11T05:01:25.225Z,48.95
2018-09-11T05:02:34.672Z,48.86
2018-09-11T05:03:43.861Z,48.86
2018-09-11T05:04:53.311Z,48.76
2018-09-11T05:06:02.936Z,48.57
2018-09-11T05:07:12.099Z,48.57
2018-09-11T05:08:21.296Z,48.76
2018-09-11T05:09:31.246Z,48.57
2018-09-11T05:10:40.693Z,48.86
2018-09-11T05:11:50.408Z,48.76
2018-09-11T05:12:59.070Z,48.57
2018-09-11T05:14:08.266Z,49.05
2018-09-11T05:15:17.999Z,48.76
2018-09-11T05:16:27.012Z,48.95
2018-09-11T05:17:36.017Z,48.86
2018-09-11T05:18:45.185Z,48.47
2018-09-11T05:19:54.358Z,48.86
2018-09-11T05:21:03.056Z,48.76
2018-09-11T05:22:12.742Z,48.47
2018-09-11T05:23:22.690Z,48.57
2018-09-11T05:24:31.608Z,48.57
2018-09-11T05:25:41.293Z,48.57
2018-09-11T05:26:51.265Z,48.47
2018-09-11T05:28:00.961Z,48.66
2018-09-11T05:29:10.645Z,48.57
2018-09-11T05:30:20.084Z,48.47
2018-09-11T05:31:29.018Z,48.57
2018-09-11T05:32:38.714Z,48.47
2018-09-11T05:33:47.355Z,48.66
2018-09-11T05:34:56.783Z,48.57
2018-09-11T05:36:05.700Z,48.47
2018-09-11T05:37:14.862Z,48.47
2018-09-11T05:38:24.323Z,48.66
2018-09-11T05:39:33.809Z,48.57
2018-09-11T05:40:42.979Z,48.66
2018-09-11T05:41:52.698Z,48.95
2018-09-11T05:43:02.382Z,48.47
2018-09-11T05:44:12.099Z,48.76
2018-09-11T05:45:21.784Z,48.47
2018-09-11T05:46:31.214Z,48.66
2018-09-11T05:47:40.429Z,48.47
2018-09-11T05:48:49.601Z,48.66
2018-09-11T05:49:59.054Z,48.47
2018-09-11T05:51:08.741Z,48.66
2018-09-11T05:52:18.448Z,48.47
2018-09-11T05:53:27.870Z,48.66
2018-09-11T05:54:37.693Z,48.69
2018-09-11T05:55:47.659Z,48.69
2018-09-11T05:56:56.832Z,48.88
2018-09-11T05:58:05.744Z,48.37
2018-09-11T05:59:15.750Z,48.47
2018-09-11T06:00:24.928Z,48.59
2018-09-11T06:01:34.585Z,48.69
2018-09-11T06:02:43.760Z,48.57
2018-09-11T06:03:52.419Z,48.69
2018-09-11T06:05:01.638Z,48.59
2018-09-11T06:06:11.075Z,48.57
2018-09-11T06:07:20.795Z,48.57
2018-09-11T06:08:29.442Z,48.39
2018-09-11T06:09:38.894Z,48.69
2018-09-11T06:10:48.577Z,48.49
2018-09-11T06:11:58.000Z,48.69
2018-09-11T06:13:07.216Z,48.49
2018-09-11T06:14:16.402Z,48.49
2018-09-11T06:15:25.866Z,48.49
2018-09-11T06:16:35.579Z,48.39
2018-09-11T06:17:45.267Z,48.69
2018-09-11T06:18:54.695Z,48.49
2018-09-11T06:20:03.849Z,48.59
2018-09-11T06:21:12.763Z,48.49
2018-09-11T06:22:22.210Z,48.3
2018-09-11T06:23:31.685Z,48.21
2018-09-11T06:24:41.125Z,48.59
2018-09-11T06:25:50.928Z,48.49
2018-09-11T06:27:00.246Z,48.39
2018-09-11T06:28:09.150Z,48.49
2018-09-11T06:29:18.853Z,48.39
2018-09-11T06:30:28.444Z,48.49
2018-09-11T06:31:37.868Z,48.49
2018-09-11T06:32:47.554Z,48.11
2018-09-11T06:33:56.981Z,48.39
2018-09-11T06:35:06.457Z,48.21
2018-09-11T06:36:15.909Z,48.01
2018-09-11T06:37:25.601Z,48.39
2018-09-11T06:38:34.526Z,48.21
2018-09-11T06:39:43.999Z,48.49
2018-09-11T06:40:53.529Z,48.39
2018-09-11T06:42:03.077Z,48.11
2018-09-11T06:43:12.506Z,48.21
2018-09-11T06:44:22.247Z,48.49
2018-09-11T06:45:31.949Z,48.39
2018-09-11T06:46:41.380Z,48.49
2018-09-11T06:47:50.546Z,48.49
2018-09-11T06:49:00.022Z,48.39
2018-09-11T06:50:09.452Z,48.39
2018-09-11T06:51:19.137Z,48.3
2018-09-11T06:52:28.831Z,48.39
2018-09-11T06:53:38.529Z,48.21
2018-09-11T06:54:48.103Z,48.39
2018-09-11T06:55:57.725Z,48.11
2018-09-11T06:57:06.634Z,48.21
2018-09-11T06:58:15.805Z,48.21
2018-09-11T06:59:25.744Z,48.21
2018-09-11T07:00:35.357Z,48.11
2018-09-11T07:01:45.068Z,48.11
2018-09-11T07:02:55.101Z,48.11
2018-09-11T07:04:04.327Z,48.11
2018-09-11T07:05:13.706Z,48.39
2018-09-11T07:06:23.163Z,48.3
2018-09-11T07:07:32.072Z,48.49
2018-09-11T07:08:41.895Z,48.49
2018-09-11T07:09:51.355Z,48.49
2018-09-11T07:11:01.302Z,48.21
2018-09-11T07:12:10.548Z,48.21
2018-09-11T07:13:19.973Z,48.21
2018-09-11T07:14:29.126Z,48.3
2018-09-11T07:15:39.016Z,48.21
2018-09-11T07:16:48.545Z,48.39
2018-09-11T07:17:58.007Z,48.11
2018-09-11T07:19:07.180Z,48.11
2018-09-11T07:20:16.569Z,48.39
2018-09-11T07:21:26.668Z,48.11
2018-09-11T07:22:35.851Z,48.39
2018-09-11T07:23:45.821Z,48.49
2018-09-11T07:24:55.321Z,48.59
2018-09-11T07:26:04.893Z,48.49
2018-09-11T07:27:14.182Z,48.39
2018-09-11T07:28:23.355Z,48.39
2018-09-11T07:29:32.275Z,48.39
2018-09-11T07:30:42.257Z,48.39
2018-09-11T07:31:51.721Z,48.39
2018-09-11T07:33:01.174Z,48.3
2018-09-11T07:34:10.091Z,48.39
2018-09-11T07:35:19.538Z,48.39
2018-09-11T07:36:29.696Z,48.49
2018-09-11T07:37:39.213Z,48.39
2018-09-11T07:38:49.335Z,48.59
2018-09-11T07:39:59.029Z,48.3
2018-09-11T07:41:08.728Z,48.21
2018-09-11T07:42:17.921Z,48.49
2018-09-11T07:43:27.117Z,48.49
2018-09-11T07:44:36.601Z,48.39
2018-09-11T07:45:46.038Z,48.21
2018-09-11T07:46:55.717Z,48.32
2018-09-11T07:48:05.437Z,48.39
2018-09-11T07:49:14.980Z,48.21
2018-09-11T07:50:24.405Z,48.32
2018-09-11T07:51:34.092Z,48.21
2018-09-11T07:52:43.385Z,48.32
2018-09-11T07:53:53.039Z,48.21
2018-09-11T07:55:03.069Z,48.23
2018-09-11T07:56:12.644Z,48.39
2018-09-11T07:57:22.361Z,48.21
2018-09-11T07:58:32.564Z,48.3
2018-09-11T07:59:42.297Z,48.23
2018-09-11T08:00:51.729Z,48.32
2018-09-11T08:02:01.397Z,48.52
2018-09-11T08:03:10.855Z,48.3
2018-09-11T08:04:20.143Z,48.21
2018-09-11T08:05:29.569Z,48.32
2018-09-11T08:06:38.732Z,48.39
2018-09-11T08:07:48.694Z,48.42
2018-09-11T08:08:57.862Z,48.52
2018-09-11T08:10:07.621Z,48.32
2018-09-11T08:11:16.536Z,48.32
2018-09-11T08:12:26.049Z,48.52
2018-09-11T08:13:35.232Z,48.23
2018-09-11T08:14:44.670Z,48.42
2018-09-11T08:15:54.362Z,48.42
2018-09-11T08:17:03.838Z,48.23
2018-09-11T08:18:13.014Z,48.32
2018-09-11T08:19:22.460Z,48.32
2018-09-11T08:20:31.632Z,48.32
2018-09-11T08:21:40.801Z,48.23
2018-09-11T08:22:49.803Z,48.23
2018-09-11T08:23:59.230Z,48.49
2018-09-11T08:25:08.688Z,48.39
2018-09-11T08:26:17.593Z,48.32
2018-09-11T08:27:26.791Z,48.23
2018-09-11T08:28:36.581Z,48.42
2018-09-11T08:29:46.023Z,48.21
2018-09-11T08:30:55.455Z,48.23
2018-09-11T08:32:04.419Z,48.32
2018-09-11T08:33:13.889Z,48.3
2018-09-11T08:34:23.615Z,48.42
2018-09-11T08:35:32.793Z,48.32
2018-09-11T08:36:41.993Z,48.32
2018-09-11T08:37:51.427Z,48.32
2018-09-11T08:39:00.102Z,48.52
2018-09-11T08:40:09.528Z,48.32
2018-09-11T08:41:19.203Z,48.32
2018-09-11T08:42:28.873Z,48.42
2018-09-11T08:43:38.303Z,48.32
2018-09-11T08:44:47.468Z,48.32
2018-09-11T08:45:56.745Z,48.42
2018-09-11T08:47:06.184Z,48.52
2018-09-11T08:48:15.355Z,48.32
2018-09-11T08:49:24.859Z,48.32
2018-09-11T08:50:34.302Z,48.52
2018-09-11T08:51:43.213Z,48.52
2018-09-11T08:52:52.762Z,48.52
2018-09-11T08:54:02.265Z,48.52
2018-09-11T08:55:11.948Z,48.52
2018-09-11T08:56:21.635Z,48.32
2018-09-11T08:57:30.571Z,48.52
2018-09-11T08:58:39.884Z,48.42
2018-09-11T08:59:50.189Z,48.52
2018-09-11T09:00:59.616Z,48.23
2018-09-11T09:02:08.784Z,48.42
2018-09-11T09:03:18.240Z,48.23
2018-09-11T09:04:26.951Z,48.32
2018-09-11T09:05:36.367Z,48.42
2018-09-11T09:06:46.052Z,48.52
2018-09-11T09:07:54.973Z,48.42
2018-09-11T09:09:04.428Z,48.32
2018-09-11T09:10:14.306Z,48.32
2018-09-11T09:11:24.320Z,48.52
2018-09-11T09:12:33.761Z,48.23
2018-09-11T09:13:43.462Z,48.32
2018-09-11T09:14:53.126Z,48.52
2018-09-11T09:16:02.591Z,48.32
2018-09-11T09:17:11.521Z,48.32
2018-09-11T09:18:20.828Z,48.52
2018-09-11T09:19:29.992Z,48.23
2018-09-11T09:20:38.923Z,48.32
2018-09-11T09:21:48.649Z,48.52
2018-09-11T09:22:58.378Z,48.32
2018-09-11T09:24:08.408Z,48.52
2018-09-11T09:25:17.844Z,48.32
2018-09-11T09:26:27.029Z,48.52
2018-09-11T09:27:37.131Z,48.32
2018-09-11T09:28:47.017Z,48.32
2018-09-11T09:29:55.665Z,48.32
2018-09-11T09:31:05.345Z,48.32
2018-09-11T09:32:14.797Z,48.52
2018-09-11T09:33:24.398Z,48.42
2018-09-11T09:34:34.368Z,48.32
2018-09-11T09:35:44.307Z,48.32
2018-09-11T09:36:53.640Z,48.32
2018-09-11T09:38:02.910Z,48.42
2018-09-11T09:39:12.202Z,48.32
2018-09-11T09:40:21.636Z,48.32
2018-09-11T09:41:30.822Z,48.52
2018-09-11T09:42:40.508Z,48.32
2018-09-11T09:43:50.326Z,48.32
2018-09-11T09:44:59.830Z,48.32
2018-09-11T09:46:09.318Z,48.52
2018-09-11T09:47:19.076Z,48.52
2018-09-11T09:48:28.527Z,48.42
2018-09-11T09:49:37.953Z,48.42
2018-09-11T09:50:47.964Z,48.32
2018-09-11T09:51:57.207Z,48.32
2018-09-11T09:53:06.907Z,48.32
2018-09-11T09:54:16.613Z,48.32
2018-09-11T09:55:26.555Z,48.52
2018-09-11T09:56:36.240Z,48.42
2018-09-11T09:57:45.661Z,48.32
2018-09-11T09:58:54.884Z,48.42
2018-09-11T10:00:04.648Z,48.52
2018-09-11T10:01:14.325Z,48.32
2018-09-11T10:02:24.010Z,48.52
2018-09-11T10:03:33.437Z,48.32
2018-09-11T10:04:43.203Z,48.32
2018-09-11T10:05:53.139Z,48.52
2018-09-11T10:07:02.031Z,48.32
2018-09-11T10:08:11.198Z,48.52
2018-09-11T10:09:20.579Z,48.32
2018-09-11T10:10:29.753Z,48.52
2018-09-11T10:11:39.267Z,48.52
2018-09-11T10:12:48.786Z,48.32
2018-09-11T10:13:58.866Z,48.32
2018-09-11T10:15:08.542Z,48.23
2018-09-11T10:16:17.755Z,48.42
2018-09-11T10:17:27.279Z,48.42
2018-09-11T10:18:37.176Z,48.32
2018-09-11T10:19:46.374Z,48.23
2018-09-11T10:20:55.881Z,48.23
2018-09-11T10:22:05.185Z,48.52
2018-09-11T10:23:14.350Z,48.32
2018-09-11T10:24:23.577Z,48.32
2018-09-11T10:25:33.002Z,48.32
2018-09-11T10:26:42.962Z,48.42
2018-09-11T10:27:52.390Z,48.23
2018-09-11T10:29:02.090Z,48.32
2018-09-11T10:30:10.736Z,48.32
2018-09-11T10:31:19.930Z,48.23
2018-09-11T10:32:28.845Z,48.32
2018-09-11T10:33:38.394Z,48.32
2018-09-11T10:34:47.919Z,48.52
2018-09-11T10:35:56.833Z,48.32
2018-09-11T10:37:06.630Z,48.32
2018-09-11T10:38:15.788Z,48.32
2018-09-11T10:39:25.064Z,48.52
2018-09-11T10:40:34.327Z,48.52
2018-09-11T10:41:43.753Z,48.52
2018-09-11T10:42:53.197Z,48.44
2018-09-11T10:44:02.175Z,48.32
2018-09-11T10:45:11.636Z,48.32
2018-09-11T10:46:20.792Z,48.32
2018-09-11T10:47:30.213Z,48.32
2018-09-11T10:48:39.697Z,48.32
2018-09-11T10:49:49.251Z,48.52
2018-09-11T10:50:58.947Z,48.32
2018-09-11T10:52:08.396Z,48.42
2018-09-11T10:53:18.076Z,48.32
2018-09-11T10:54:27.493Z,48.52
2018-09-11T10:55:36.644Z,48.32
2018-09-11T10:56:45.809Z,48.52
2018-09-11T10:57:54.986Z,48.32
2018-09-11T10:59:04.397Z,48.52
2018-09-11T11:00:14.460Z,48.52
2018-09-11T11:01:24.330Z,48.32
2018-09-11T11:02:33.243Z,48.52
2018-09-11T11:03:42.656Z,48.32
2018-09-11T11:04:52.338Z,48.52
2018-09-11T11:06:01.566Z,48.23
2018-09-11T11:07:11.030Z,48.52
2018-09-11T11:08:20.467Z,48.32
2018-09-11T11:09:29.647Z,48.23
2018-09-11T11:10:39.334Z,48.32
2018-09-11T11:11:49.335Z,48.32
2018-09-11T11:12:58.516Z,48.23
2018-09-11T11:14:08.186Z,48.32
2018-09-11T11:15:17.621Z,48.52
2018-09-11T11:16:27.560Z,48.32
2018-09-11T11:17:37.242Z,48.42
2018-09-11T11:18:46.666Z,48.52
2018-09-11T11:19:55.893Z,48.13
2018-09-11T11:21:04.824Z,48.23
2018-09-11T11:22:14.265Z,48.13
2018-09-11T11:23:23.692Z,48.23
2018-09-11T11:24:32.856Z,48.23
2018-09-11T11:25:42.571Z,48.32
2018-09-11T11:26:51.773Z,48.23
2018-09-11T11:28:01.350Z,48.44
2018-09-11T11:29:11.045Z,48.23
2018-09-11T11:30:21.047Z,48.32
2018-09-11T11:31:30.503Z,48.32
2018-09-11T11:32:39.918Z,48.32
2018-09-11T11:33:49.064Z,48.32
2018-09-11T11:34:58.483Z,48.52
2018-09-11T11:36:08.170Z,48.32
2018-09-11T11:37:18.463Z,48.32
2018-09-11T11:38:29.151Z,48.44
2018-09-11T11:39:39.102Z,48.32
2018-09-11T11:40:47.783Z,48.23
2018-09-11T11:41:57.897Z,48.23
2018-09-11T11:43:07.333Z,48.32
2018-09-11T11:44:16.741Z,48.23
2018-09-11T11:45:26.172Z,48.35
2018-09-11T11:46:35.641Z,48.42
2018-09-11T11:47:45.643Z,48.25
2018-09-11T11:48:54.350Z,48.23
2018-09-11T11:50:04.293Z,48.32
2018-09-11T11:51:13.456Z,48.32
2018-09-11T11:52:23.148Z,48.32
2018-09-11T11:53:32.309Z,48.44
2018-09-11T11:54:41.856Z,48.35
2018-09-11T11:55:51.362Z,48.35
2018-09-11T11:57:00.551Z,48.32
2018-09-11T11:58:09.720Z,48.23
2018-09-11T11:59:19.149Z,48.23
2018-09-11T12:00:28.606Z,48.32
2018-09-11T12:01:38.827Z,48.42
2018-09-11T12:02:48.587Z,48.32
2018-09-11T12:03:58.073Z,48.32
2018-09-11T12:05:07.489Z,48.35
2018-09-11T12:06:17.509Z,48.54
2018-09-11T12:07:27.193Z,48.44
2018-09-11T12:08:37.141Z,48.35
2018-09-11T12:09:46.585Z,48.35
2018-09-11T12:10:56.525Z,48.32
2018-09-11T12:12:05.946Z,48.32
2018-09-11T12:13:15.367Z,48.35
2018-09-11T12:14:25.318Z,48.44
2018-09-11T12:15:34.771Z,48.35
2018-09-11T12:16:43.949Z,48.25
2018-09-11T12:17:53.841Z,48.35
2018-09-11T12:19:03.806Z,48.23
2018-09-11T12:20:13.337Z,48.35
2018-09-11T12:21:22.507Z,48.25
2018-09-11T12:22:32.200Z,48.32
2018-09-11T12:23:41.378Z,48.25
2018-09-11T12:24:50.288Z,48.23
2018-09-11T12:25:59.441Z,48.35
2018-09-11T12:27:09.132Z,48.25
2018-09-11T12:28:18.069Z,48.23
2018-09-11T12:29:27.056Z,48.25
2018-09-11T12:30:35.954Z,48.23
2018-09-11T12:31:45.121Z,48.35
2018-09-11T12:32:54.549Z,48.35
2018-09-11T12:34:03.979Z,48.25
2018-09-11T12:35:13.778Z,48.44
2018-09-11T12:36:23.019Z,48.16
2018-09-11T12:37:32.690Z,48.16
2018-09-11T12:38:42.715Z,48.16
2018-09-11T12:39:52.148Z,48.44
2018-09-11T12:41:01.313Z,48.35
2018-09-11T12:42:10.224Z,48.35
2018-09-11T12:43:19.696Z,48.35
2018-09-11T12:44:29.188Z,48.44
2018-09-11T12:45:38.455Z,48.44
2018-09-11T12:46:49.385Z,48.44
2018-09-11T12:48:00.742Z,48.52
2018-09-11T12:49:11.499Z,48.54
2018-09-11T12:50:20.705Z,48.54
2018-09-11T12:51:30.647Z,48.54
2018-09-11T12:52:40.324Z,48.44
2018-09-11T12:53:49.899Z,48.35
2018-09-11T12:54:59.328Z,48.06
2018-09-11T12:56:09.041Z,48.06
2018-09-11T12:57:18.263Z,48.64
2018-09-11T12:58:27.444Z,48.06
2018-09-11T12:59:36.660Z,48.54
2018-09-11T13:00:46.129Z,48.06
2018-09-11T13:01:55.623Z,47.86
2018-09-11T13:03:04.538Z,47.96
2018-09-11T13:04:14.526Z,47.86
2018-09-11T13:05:23.446Z,47.67
2018-09-11T13:06:33.186Z,47.86
2018-09-11T13:07:42.468Z,47.96
2018-09-11T13:08:51.724Z,47.96
2018-09-11T13:10:01.288Z,47.67
2018-09-11T13:11:11.295Z,47.96
2018-09-11T13:12:21.055Z,47.96
2018-09-11T13:13:31.160Z,47.67
2018-09-11T13:14:40.429Z,47.67
2018-09-11T13:15:49.978Z,47.96
2018-09-11T13:16:59.756Z,47.58
2018-09-11T13:18:09.240Z,47.48
2018-09-11T13:19:18.716Z,47.86
2018-09-11T13:20:28.522Z,47.77
2018-09-11T13:21:38.527Z,47.67
2018-09-11T13:22:47.497Z,47.77
2018-09-11T13:23:57.259Z,47.86
2018-09-11T13:25:06.508Z,47.77
2018-09-11T13:26:16.668Z,47.86
2018-09-11T13:27:26.466Z,47.86
2018-09-11T13:28:36.004Z,47.86
2018-09-11T13:29:46.158Z,47.67
2018-09-11T13:30:55.896Z,47.86
2018-09-11T13:32:05.352Z,47.77
2018-09-11T13:33:15.138Z,47.77
2018-09-11T13:34:24.627Z,47.58
2018-09-11T13:35:33.882Z,47.67
2018-09-11T13:36:43.634Z,47.77
2018-09-11T13:37:53.101Z,47.86
2018-09-11T13:39:01.763Z,47.86
2018-09-11T13:40:11.191Z,47.67
2018-09-11T13:41:20.902Z,47.67
2018-09-11T13:42:30.123Z,47.86
2018-09-11T13:43:39.894Z,47.48
2018-09-11T13:44:49.379Z,47.48
2018-09-11T13:45:58.676Z,47.38
2018-09-11T13:47:08.263Z,47.28
2018-09-11T13:48:18.260Z,47.38
2018-09-11T13:49:27.729Z,47.5
2018-09-11T13:50:37.265Z,47.6
2018-09-11T13:51:46.210Z,47.48
2018-09-11T13:52:56.123Z,47.38
2018-09-11T13:54:06.153Z,47.41
2018-09-11T13:55:15.413Z,47.48
2018-09-11T13:56:24.693Z,47.5
2018-09-11T13:57:34.212Z,47.48
2018-09-11T13:58:43.434Z,47.58
2018-09-11T13:59:52.890Z,47.58
2018-09-11T14:01:02.429Z,47.58
2018-09-11T14:02:12.496Z,47.6
2018-09-11T14:03:22.205Z,47.48
2018-09-11T14:04:31.409Z,47.58
2018-09-11T14:05:41.165Z,47.69
2018-09-11T14:06:50.962Z,47.69
2018-09-11T14:08:00.701Z,47.5
2018-09-11T14:09:10.391Z,47.69
2018-09-11T14:10:19.362Z,47.41
2018-09-11T14:11:28.569Z,47.67
2018-09-11T14:12:38.309Z,47.69
2018-09-11T14:13:47.834Z,47.6
2018-09-11T14:14:57.326Z,47.67
2018-09-11T14:16:06.601Z,47.69
2018-09-11T14:17:16.090Z,47.41
2018-09-11T14:18:25.733Z,47.69
2018-09-11T14:19:35.696Z,47.38
2018-09-11T14:20:45.214Z,47.69
2018-09-11T14:21:54.383Z,47.41
2018-09-11T14:23:03.930Z,47.67
2018-09-11T14:24:13.374Z,47.5
2018-09-11T14:25:23.279Z,47.28
2018-09-11T14:26:32.242Z,47.69
2018-09-11T14:27:42.425Z,47.69
2018-09-11T14:28:51.663Z,47.41
2018-09-11T14:30:00.848Z,47.48
2018-09-11T14:31:10.605Z,47.58
2018-09-11T14:32:20.379Z,47.41
2018-09-11T14:33:29.569Z,47.38
2018-09-11T14:34:39.386Z,47.5
2018-09-11T14:35:48.212Z,47.6
2018-09-11T14:36:57.367Z,47.31
2018-09-11T14:38:06.297Z,47.31
2018-09-11T14:39:15.773Z,47.99
2018-09-11T14:40:24.766Z,47.77
2018-09-11T14:41:34.533Z,47.86
2018-09-11T14:42:43.782Z,47.69
2018-09-11T14:43:53.504Z,47.69
2018-09-11T14:45:02.513Z,47.67
2018-09-11T14:46:11.755Z,47.69
2018-09-11T14:47:21.266Z,47.67
2018-09-11T14:48:31.015Z,47.99
2018-09-11T14:49:40.243Z,47.89
2018-09-11T14:50:49.750Z,47.69
2018-09-11T14:51:58.757Z,47.67
2018-09-11T14:53:08.007Z,47.86
2018-09-11T14:54:17.463Z,47.6
2018-09-11T14:55:26.940Z,47.69
2018-09-11T14:56:36.182Z,47.86